sensor_id;sensor_type;location;lat;lon;timestamp;P1;durP1;ratioP1;P2;durP2;ratioP2
21505;SDS011;10914;48.886;9.394;2022-10-18T00:01:51;51.13;;;48.03;;
21505;SDS011;10914;48.886;9.394;2022-10-18T00:04:17;40.83;;;37.95;;
21505;SDS011;10914;48.886;9.394;2022-10-18T00:06:42;40.47;;;37.50;;
21505;SDS011;10914;48.886;9.394;2022-10-18T00:09:07;38.22;;;35.35;;
21505;SDS011;10914;48.886;9.394;2022-10-18T00:11:32;38.57;;;35.73;;
21505;SDS011;10914;48.886;9.394;2022-10-18T00:13:58;37.67;;;34.97;;
21505;SDS011;10914;48.886;9.394;2022-10-18T00:16:23;40.60;;;37.67;;
21505;SDS011;10914;48.886;9.394;2022-10-18T00:18:48;35.63;;;32.93;;
21505;SDS011;10914;48.886;9.394;2022-10-18T00:21:14;37.88;;;35.08;;
21505;SDS011;10914;48.886;9.394;2022-10-18T00:23:40;39.65;;;36.80;;
21505;SDS011;10914;48.886;9.394;2022-10-18T00:26:09;35.72;;;32.95;;
21505;SDS011;10914;48.886;9.394;2022-10-18T00:28:35;35.03;;;32.33;;
21505;SDS011;10914;48.886;9.394;2022-10-18T00:31:11;35.70;;;33.00;;
21505;SDS011;10914;48.886;9.394;2022-10-18T00:33:36;39.85;;;36.72;;
21505;SDS011;10914;48.886;9.394;2022-10-18T00:36:01;43.57;;;40.37;;
21505;SDS011;10914;48.886;9.394;2022-10-18T00:38:26;43.58;;;40.47;;
21505;SDS011;10914;48.886;9.394;2022-10-18T00:40:52;39.60;;;36.73;;
21505;SDS011;10914;48.886;9.394;2022-10-18T00:43:17;35.77;;;33.27;;
21505;SDS011;10914;48.886;9.394;2022-10-18T00:45:42;38.97;;;36.37;;
21505;SDS011;10914;48.886;9.394;2022-10-18T00:48:07;38.45;;;35.78;;
21505;SDS011;10914;48.886;9.394;2022-10-18T00:50:32;37.13;;;34.53;;
21505;SDS011;10914;48.886;9.394;2022-10-18T00:53:00;37.42;;;34.65;;
21505;SDS011;10914;48.886;9.394;2022-10-18T00:55:26;36.67;;;33.92;;
21505;SDS011;10914;48.886;9.394;2022-10-18T00:57:52;36.88;;;34.13;;
21505;SDS011;10914;48.886;9.394;2022-10-18T01:00:18;38.58;;;35.85;;
21505;SDS011;10914;48.886;9.394;2022-10-18T01:02:43;36.47;;;34.15;;
21505;SDS011;10914;48.886;9.394;2022-10-18T01:05:09;39.15;;;36.30;;
21505;SDS011;10914;48.886;9.394;2022-10-18T01:15:26;44.70;;;41.57;;
21505;SDS011;10914;48.886;9.394;2022-10-18T01:23:12;51.33;;;47.80;;
21505;SDS011;10914;48.886;9.394;2022-10-18T01:30:45;43.95;;;41.05;;
21505;SDS011;10914;48.886;9.394;2022-10-18T01:35:44;41.45;;;38.40;;
21505;SDS011;10914;48.886;9.394;2022-10-18T01:38:12;37.95;;;35.33;;
21505;SDS011;10914;48.886;9.394;2022-10-18T01:40:41;37.95;;;35.35;;
21505;SDS011;10914;48.886;9.394;2022-10-18T01:43:07;38.38;;;35.78;;
21505;SDS011;10914;48.886;9.394;2022-10-18T01:45:34;37.03;;;34.58;;
21505;SDS011;10914;48.886;9.394;2022-10-18T01:47:59;41.10;;;38.30;;
21505;SDS011;10914;48.886;9.394;2022-10-18T01:50:32;37.88;;;35.28;;
21505;SDS011;10914;48.886;9.394;2022-10-18T01:52:57;37.70;;;35.05;;
21505;SDS011;10914;48.886;9.394;2022-10-18T01:55:42;39.47;;;36.38;;
21505;SDS011;10914;48.886;9.394;2022-10-18T01:58:17;39.42;;;37.03;;
21505;SDS011;10914;48.886;9.394;2022-10-18T02:00:44;37.72;;;35.20;;
21505;SDS011;10914;48.886;9.394;2022-10-18T02:03:14;39.85;;;37.22;;
21505;SDS011;10914;48.886;9.394;2022-10-18T02:05:53;35.42;;;32.78;;
21505;SDS011;10914;48.886;9.394;2022-10-18T02:08:33;37.28;;;34.65;;
21505;SDS011;10914;48.886;9.394;2022-10-18T02:11:01;35.47;;;33.10;;
21505;SDS011;10914;48.886;9.394;2022-10-18T02:13:32;37.80;;;34.80;;
21505;SDS011;10914;48.886;9.394;2022-10-18T02:16:00;40.65;;;38.03;;
21505;SDS011;10914;48.886;9.394;2022-10-18T02:18:28;37.25;;;34.92;;
21505;SDS011;10914;48.886;9.394;2022-10-18T02:20:54;35.40;;;32.85;;
21505;SDS011;10914;48.886;9.394;2022-10-18T02:23:21;37.50;;;35.13;;
21505;SDS011;10914;48.886;9.394;2022-10-18T02:25:47;36.00;;;33.58;;
21505;SDS011;10914;48.886;9.394;2022-10-18T02:28:12;43.83;;;40.85;;
21505;SDS011;10914;48.886;9.394;2022-10-18T02:33:33;40.92;;;38.08;;
21505;SDS011;10914;48.886;9.394;2022-10-18T02:36:01;36.33;;;33.63;;
21505;SDS011;10914;48.886;9.394;2022-10-18T02:38:28;36.20;;;33.47;;
21505;SDS011;10914;48.886;9.394;2022-10-18T02:40:55;39.17;;;36.08;;
21505;SDS011;10914;48.886;9.394;2022-10-18T02:43:22;35.13;;;32.83;;
21505;SDS011;10914;48.886;9.394;2022-10-18T02:45:47;36.72;;;34.00;;
21505;SDS011;10914;48.886;9.394;2022-10-18T02:48:12;35.17;;;32.90;;
21505;SDS011;10914;48.886;9.394;2022-10-18T02:50:38;37.93;;;35.17;;
21505;SDS011;10914;48.886;9.394;2022-10-18T02:53:03;36.13;;;33.57;;
21505;SDS011;10914;48.886;9.394;2022-10-18T02:55:28;35.88;;;32.88;;
21505;SDS011;10914;48.886;9.394;2022-10-18T02:57:53;34.80;;;32.10;;
21505;SDS011;10914;48.886;9.394;2022-10-18T03:00:18;36.60;;;34.10;;
21505;SDS011;10914;48.886;9.394;2022-10-18T03:02:44;37.67;;;35.17;;
21505;SDS011;10914;48.886;9.394;2022-10-18T03:05:09;36.63;;;34.33;;
21505;SDS011;10914;48.886;9.394;2022-10-18T03:07:34;34.67;;;32.45;;
21505;SDS011;10914;48.886;9.394;2022-10-18T03:09:59;36.90;;;34.60;;
21505;SDS011;10914;48.886;9.394;2022-10-18T03:12:24;37.17;;;34.88;;
21505;SDS011;10914;48.886;9.394;2022-10-18T03:14:50;36.80;;;34.30;;
21505;SDS011;10914;48.886;9.394;2022-10-18T03:17:15;37.42;;;34.88;;
21505;SDS011;10914;48.886;9.394;2022-10-18T03:19:40;37.20;;;34.57;;
21505;SDS011;10914;48.886;9.394;2022-10-18T03:22:05;36.63;;;34.33;;
21505;SDS011;10914;48.886;9.394;2022-10-18T03:24:31;37.15;;;34.58;;
21505;SDS011;10914;48.886;9.394;2022-10-18T03:26:56;36.05;;;33.42;;
21505;SDS011;10914;48.886;9.394;2022-10-18T03:29:21;39.27;;;36.53;;
21505;SDS011;10914;48.886;9.394;2022-10-18T03:31:46;33.83;;;31.33;;
21505;SDS011;10914;48.886;9.394;2022-10-18T03:34:11;36.22;;;33.65;;
21505;SDS011;10914;48.886;9.394;2022-10-18T03:36:37;37.57;;;34.97;;
21505;SDS011;10914;48.886;9.394;2022-10-18T03:39:04;36.95;;;34.40;;
21505;SDS011;10914;48.886;9.394;2022-10-18T03:41:29;35.57;;;33.13;;
21505;SDS011;10914;48.886;9.394;2022-10-18T03:43:54;37.17;;;34.30;;
21505;SDS011;10914;48.886;9.394;2022-10-18T03:46:19;34.80;;;32.57;;
21505;SDS011;10914;48.886;9.394;2022-10-18T03:48:44;32.30;;;30.33;;
21505;SDS011;10914;48.886;9.394;2022-10-18T03:51:09;33.67;;;31.20;;
21505;SDS011;10914;48.886;9.394;2022-10-18T03:53:35;33.73;;;31.63;;
21505;SDS011;10914;48.886;9.394;2022-10-18T03:56:00;31.20;;;28.88;;
21505;SDS011;10914;48.886;9.394;2022-10-18T03:58:25;32.60;;;30.40;;
21505;SDS011;10914;48.886;9.394;2022-10-18T04:00:50;37.67;;;35.37;;
21505;SDS011;10914;48.886;9.394;2022-10-18T04:03:16;32.72;;;30.60;;
21505;SDS011;10914;48.886;9.394;2022-10-18T04:05:41;32.22;;;29.95;;
21505;SDS011;10914;48.886;9.394;2022-10-18T04:08:06;31.40;;;29.13;;
21505;SDS011;10914;48.886;9.394;2022-10-18T04:10:31;30.30;;;28.13;;
21505;SDS011;10914;48.886;9.394;2022-10-18T04:12:57;33.10;;;30.75;;
21505;SDS011;10914;48.886;9.394;2022-10-18T04:15:22;32.03;;;29.83;;
21505;SDS011;10914;48.886;9.394;2022-10-18T04:17:47;33.00;;;30.43;;
21505;SDS011;10914;48.886;9.394;2022-10-18T04:20:12;33.47;;;31.35;;
21505;SDS011;10914;48.886;9.394;2022-10-18T04:22:37;35.95;;;33.70;;
21505;SDS011;10914;48.886;9.394;2022-10-18T04:25:03;37.45;;;35.15;;
21505;SDS011;10914;48.886;9.394;2022-10-18T04:27:29;36.72;;;34.40;;
21505;SDS011;10914;48.886;9.394;2022-10-18T04:29:54;36.03;;;33.72;;
21505;SDS011;10914;48.886;9.394;2022-10-18T04:32:19;36.60;;;34.37;;
21505;SDS011;10914;48.886;9.394;2022-10-18T04:34:44;33.05;;;30.42;;
21505;SDS011;10914;48.886;9.394;2022-10-18T04:37:09;31.60;;;29.20;;
21505;SDS011;10914;48.886;9.394;2022-10-18T04:39:35;30.67;;;28.70;;
21505;SDS011;10914;48.886;9.394;2022-10-18T04:42:00;30.83;;;28.55;;
21505;SDS011;10914;48.886;9.394;2022-10-18T04:44:25;30.10;;;28.20;;
21505;SDS011;10914;48.886;9.394;2022-10-18T04:46:50;29.70;;;27.57;;
21505;SDS011;10914;48.886;9.394;2022-10-18T04:49:15;30.77;;;28.77;;
21505;SDS011;10914;48.886;9.394;2022-10-18T04:51:41;34.63;;;32.42;;
21505;SDS011;10914;48.886;9.394;2022-10-18T04:54:06;28.87;;;26.60;;
21505;SDS011;10914;48.886;9.394;2022-10-18T04:56:31;30.20;;;27.98;;
21505;SDS011;10914;48.886;9.394;2022-10-18T04:58:57;33.97;;;31.63;;
21505;SDS011;10914;48.886;9.394;2022-10-18T05:01:22;34.67;;;32.50;;
21505;SDS011;10914;48.886;9.394;2022-10-18T05:03:50;32.00;;;29.87;;
21505;SDS011;10914;48.886;9.394;2022-10-18T05:06:15;30.90;;;28.52;;
21505;SDS011;10914;48.886;9.394;2022-10-18T05:08:40;31.27;;;29.23;;
21505;SDS011;10914;48.886;9.394;2022-10-18T05:11:06;38.57;;;36.20;;
21505;SDS011;10914;48.886;9.394;2022-10-18T05:13:31;35.37;;;33.07;;
21505;SDS011;10914;48.886;9.394;2022-10-18T05:15:56;30.38;;;28.05;;
21505;SDS011;10914;48.886;9.394;2022-10-18T05:18:23;32.30;;;30.00;;
21505;SDS011;10914;48.886;9.394;2022-10-18T05:20:48;31.77;;;29.33;;
21505;SDS011;10914;48.886;9.394;2022-10-18T05:23:13;29.90;;;27.73;;
21505;SDS011;10914;48.886;9.394;2022-10-18T05:25:42;31.10;;;29.10;;
21505;SDS011;10914;48.886;9.394;2022-10-18T05:28:08;31.52;;;29.33;;
21505;SDS011;10914;48.886;9.394;2022-10-18T05:30:35;30.08;;;28.02;;
21505;SDS011;10914;48.886;9.394;2022-10-18T05:33:01;33.80;;;31.27;;
21505;SDS011;10914;48.886;9.394;2022-10-18T05:35:26;36.50;;;33.90;;
21505;SDS011;10914;48.886;9.394;2022-10-18T05:37:51;34.90;;;32.60;;
21505;SDS011;10914;48.886;9.394;2022-10-18T05:40:16;33.00;;;30.57;;
21505;SDS011;10914;48.886;9.394;2022-10-18T05:42:41;34.75;;;31.92;;
21505;SDS011;10914;48.886;9.394;2022-10-18T05:45:07;34.15;;;31.80;;
21505;SDS011;10914;48.886;9.394;2022-10-18T05:47:32;48.75;;;45.60;;
21505;SDS011;10914;48.886;9.394;2022-10-18T05:49:57;38.30;;;35.43;;
21505;SDS011;10914;48.886;9.394;2022-10-18T05:52:22;36.23;;;33.60;;
21505;SDS011;10914;48.886;9.394;2022-10-18T05:54:48;39.47;;;36.53;;
21505;SDS011;10914;48.886;9.394;2022-10-18T05:57:13;39.87;;;37.10;;
21505;SDS011;10914;48.886;9.394;2022-10-18T05:59:38;53.45;;;50.28;;
21505;SDS011;10914;48.886;9.394;2022-10-18T06:02:03;43.03;;;40.20;;
21505;SDS011;10914;48.886;9.394;2022-10-18T06:04:28;56.30;;;52.88;;
21505;SDS011;10914;48.886;9.394;2022-10-18T06:06:53;45.33;;;42.57;;
21505;SDS011;10914;48.886;9.394;2022-10-18T06:09:20;54.13;;;50.88;;
21505;SDS011;10914;48.886;9.394;2022-10-18T06:11:45;38.75;;;35.97;;
21505;SDS011;10914;48.886;9.394;2022-10-18T06:14:10;43.03;;;40.13;;
21505;SDS011;10914;48.886;9.394;2022-10-18T06:16:35;37.33;;;34.65;;
21505;SDS011;10914;48.886;9.394;2022-10-18T06:19:01;38.65;;;36.30;;
21505;SDS011;10914;48.886;9.394;2022-10-18T06:21:26;40.05;;;37.08;;
21505;SDS011;10914;48.886;9.394;2022-10-18T06:23:52;41.10;;;38.38;;
21505;SDS011;10914;48.886;9.394;2022-10-18T06:26:18;38.05;;;35.53;;
21505;SDS011;10914;48.886;9.394;2022-10-18T06:28:43;34.70;;;32.25;;
21505;SDS011;10914;48.886;9.394;2022-10-18T06:31:08;39.10;;;36.57;;
21505;SDS011;10914;48.886;9.394;2022-10-18T06:33:34;39.28;;;36.88;;
21505;SDS011;10914;48.886;9.394;2022-10-18T06:36:01;36.88;;;34.40;;
21505;SDS011;10914;48.886;9.394;2022-10-18T06:38:27;40.78;;;38.08;;
21505;SDS011;10914;48.886;9.394;2022-10-18T06:40:53;36.53;;;33.92;;
21505;SDS011;10914;48.886;9.394;2022-10-18T06:43:18;31.15;;;29.10;;
21505;SDS011;10914;48.886;9.394;2022-10-18T06:45:44;34.13;;;31.60;;
21505;SDS011;10914;48.886;9.394;2022-10-18T06:48:09;33.67;;;31.23;;
21505;SDS011;10914;48.886;9.394;2022-10-18T06:50:34;34.23;;;31.90;;
21505;SDS011;10914;48.886;9.394;2022-10-18T06:52:59;31.60;;;29.53;;
21505;SDS011;10914;48.886;9.394;2022-10-18T06:55:25;36.00;;;33.60;;
21505;SDS011;10914;48.886;9.394;2022-10-18T06:57:51;39.53;;;37.00;;
21505;SDS011;10914;48.886;9.394;2022-10-18T07:00:16;42.50;;;39.78;;
21505;SDS011;10914;48.886;9.394;2022-10-18T07:02:41;54.03;;;50.80;;
21505;SDS011;10914;48.886;9.394;2022-10-18T07:05:07;44.13;;;41.30;;
21505;SDS011;10914;48.886;9.394;2022-10-18T07:07:32;42.33;;;39.70;;
21505;SDS011;10914;48.886;9.394;2022-10-18T07:09:58;47.00;;;44.07;;
21505;SDS011;10914;48.886;9.394;2022-10-18T07:12:23;66.95;;;63.13;;
21505;SDS011;10914;48.886;9.394;2022-10-18T07:14:48;65.10;;;61.17;;
21505;SDS011;10914;48.886;9.394;2022-10-18T07:17:13;46.53;;;43.47;;
21505;SDS011;10914;48.886;9.394;2022-10-18T07:19:38;43.10;;;40.20;;
21505;SDS011;10914;48.886;9.394;2022-10-18T07:22:03;45.23;;;42.47;;
21505;SDS011;10914;48.886;9.394;2022-10-18T07:24:29;42.63;;;39.83;;
21505;SDS011;10914;48.886;9.394;2022-10-18T07:26:54;43.55;;;40.63;;
21505;SDS011;10914;48.886;9.394;2022-10-18T07:29:19;44.43;;;41.83;;
21505;SDS011;10914;48.886;9.394;2022-10-18T07:31:44;49.40;;;46.50;;
21505;SDS011;10914;48.886;9.394;2022-10-18T07:34:10;41.67;;;39.17;;
21505;SDS011;10914;48.886;9.394;2022-10-18T07:36:36;42.00;;;39.25;;
21505;SDS011;10914;48.886;9.394;2022-10-18T07:39:01;50.03;;;46.90;;
21505;SDS011;10914;48.886;9.394;2022-10-18T07:41:26;43.97;;;40.97;;
21505;SDS011;10914;48.886;9.394;2022-10-18T07:43:53;40.15;;;37.30;;
21505;SDS011;10914;48.886;9.394;2022-10-18T07:46:18;37.78;;;35.05;;
21505;SDS011;10914;48.886;9.394;2022-10-18T07:48:44;41.20;;;38.38;;
21505;SDS011;10914;48.886;9.394;2022-10-18T07:51:09;35.93;;;33.43;;
21505;SDS011;10914;48.886;9.394;2022-10-18T07:53:34;39.22;;;35.97;;
21505;SDS011;10914;48.886;9.394;2022-10-18T07:56:00;44.72;;;42.10;;
21505;SDS011;10914;48.886;9.394;2022-10-18T07:58:26;42.85;;;39.95;;
21505;SDS011;10914;48.886;9.394;2022-10-18T08:00:51;35.30;;;33.15;;
21505;SDS011;10914;48.886;9.394;2022-10-18T08:03:16;37.47;;;35.10;;
21505;SDS011;10914;48.886;9.394;2022-10-18T08:05:41;43.20;;;40.50;;
21505;SDS011;10914;48.886;9.394;2022-10-18T08:08:06;36.53;;;34.10;;
21505;SDS011;10914;48.886;9.394;2022-10-18T08:10:33;36.00;;;33.87;;
21505;SDS011;10914;48.886;9.394;2022-10-18T08:12:58;32.45;;;30.55;;
21505;SDS011;10914;48.886;9.394;2022-10-18T08:15:23;33.47;;;31.27;;
21505;SDS011;10914;48.886;9.394;2022-10-18T08:17:49;28.83;;;27.02;;
21505;SDS011;10914;48.886;9.394;2022-10-18T08:20:14;29.48;;;27.52;;
21505;SDS011;10914;48.886;9.394;2022-10-18T08:22:40;32.07;;;29.87;;
21505;SDS011;10914;48.886;9.394;2022-10-18T08:25:05;30.93;;;28.93;;
21505;SDS011;10914;48.886;9.394;2022-10-18T08:27:30;32.85;;;30.92;;
21505;SDS011;10914;48.886;9.394;2022-10-18T08:29:55;30.33;;;28.53;;
21505;SDS011;10914;48.886;9.394;2022-10-18T08:32:21;29.20;;;26.80;;
21505;SDS011;10914;48.886;9.394;2022-10-18T08:34:46;27.33;;;25.37;;
21505;SDS011;10914;48.886;9.394;2022-10-18T08:37:11;27.30;;;25.20;;
21505;SDS011;10914;48.886;9.394;2022-10-18T08:39:36;30.07;;;27.87;;
21505;SDS011;10914;48.886;9.394;2022-10-18T08:44:41;32.92;;;30.63;;
21505;SDS011;10914;48.886;9.394;2022-10-18T08:47:15;30.95;;;29.02;;
21505;SDS011;10914;48.886;9.394;2022-10-18T08:49:42;28.92;;;26.85;;
21505;SDS011;10914;48.886;9.394;2022-10-18T08:52:42;26.88;;;24.92;;
21505;SDS011;10914;48.886;9.394;2022-10-18T08:57:34;27.83;;;25.77;;
21505;SDS011;10914;48.886;9.394;2022-10-18T09:00:00;27.27;;;25.52;;
21505;SDS011;10914;48.886;9.394;2022-10-18T09:02:40;25.60;;;23.73;;
21505;SDS011;10914;48.886;9.394;2022-10-18T09:05:16;25.00;;;23.50;;
21505;SDS011;10914;48.886;9.394;2022-10-18T09:15:58;28.63;;;26.67;;
21505;SDS011;10914;48.886;9.394;2022-10-18T09:18:40;26.15;;;24.33;;
21505;SDS011;10914;48.886;9.394;2022-10-18T09:21:16;24.98;;;23.35;;
21505;SDS011;10914;48.886;9.394;2022-10-18T09:23:45;25.08;;;23.45;;
21505;SDS011;10914;48.886;9.394;2022-10-18T09:26:18;24.40;;;22.80;;
21505;SDS011;10914;48.886;9.394;2022-10-18T09:33:44;24.23;;;22.33;;
21505;SDS011;10914;48.886;9.394;2022-10-18T09:36:13;23.98;;;22.45;;
21505;SDS011;10914;48.886;9.394;2022-10-18T09:38:45;24.52;;;22.88;;
21505;SDS011;10914;48.886;9.394;2022-10-18T09:41:13;24.27;;;22.45;;
21505;SDS011;10914;48.886;9.394;2022-10-18T09:46:08;23.77;;;22.00;;
21505;SDS011;10914;48.886;9.394;2022-10-18T09:49:21;24.50;;;22.67;;
21505;SDS011;10914;48.886;9.394;2022-10-18T09:51:20;23.48;;;21.65;;
21505;SDS011;10914;48.886;9.394;2022-10-18T09:54:04;24.67;;;22.33;;
21505;SDS011;10914;48.886;9.394;2022-10-18T09:56:53;24.00;;;22.42;;
21505;SDS011;10914;48.886;9.394;2022-10-18T09:59:26;22.98;;;21.48;;
21505;SDS011;10914;48.886;9.394;2022-10-18T10:01:53;24.40;;;22.70;;
21505;SDS011;10914;48.886;9.394;2022-10-18T10:04:19;23.17;;;21.58;;
21505;SDS011;10914;48.886;9.394;2022-10-18T10:06:51;23.90;;;22.20;;
21505;SDS011;10914;48.886;9.394;2022-10-18T10:09:17;23.40;;;21.63;;
21505;SDS011;10914;48.886;9.394;2022-10-18T10:11:46;23.50;;;21.88;;
21505;SDS011;10914;48.886;9.394;2022-10-18T10:14:18;24.38;;;22.75;;
21505;SDS011;10914;48.886;9.394;2022-10-18T10:16:51;25.60;;;23.80;;
21505;SDS011;10914;48.886;9.394;2022-10-18T10:19:17;24.20;;;22.50;;
21505;SDS011;10914;48.886;9.394;2022-10-18T10:21:42;25.40;;;23.77;;
21505;SDS011;10914;48.886;9.394;2022-10-18T10:27:14;25.30;;;23.65;;
21505;SDS011;10914;48.886;9.394;2022-10-18T10:32:12;22.38;;;20.73;;
21505;SDS011;10914;48.886;9.394;2022-10-18T10:34:37;22.35;;;20.58;;
21505;SDS011;10914;48.886;9.394;2022-10-18T10:37:08;20.70;;;19.30;;
21505;SDS011;10914;48.886;9.394;2022-10-18T10:39:45;21.33;;;19.90;;
21505;SDS011;10914;48.886;9.394;2022-10-18T10:42:35;20.30;;;18.85;;
21505;SDS011;10914;48.886;9.394;2022-10-18T10:45:01;19.80;;;18.58;;
21505;SDS011;10914;48.886;9.394;2022-10-18T10:47:27;21.23;;;19.83;;
21505;SDS011;10914;48.886;9.394;2022-10-18T10:49:55;21.45;;;19.67;;
21505;SDS011;10914;48.886;9.394;2022-10-18T10:52:21;21.33;;;19.50;;
21505;SDS011;10914;48.886;9.394;2022-10-18T10:54:47;21.38;;;19.77;;
21505;SDS011;10914;48.886;9.394;2022-10-18T11:04:41;20.48;;;19.02;;
21505;SDS011;10914;48.886;9.394;2022-10-18T11:09:47;20.67;;;19.27;;
21505;SDS011;10914;48.886;9.394;2022-10-18T11:12:30;20.67;;;19.38;;
21505;SDS011;10914;48.886;9.394;2022-10-18T11:15:10;20.65;;;19.33;;
21505;SDS011;10914;48.886;9.394;2022-10-18T11:20:09;22.55;;;20.92;;
21505;SDS011;10914;48.886;9.394;2022-10-18T11:22:49;21.67;;;20.38;;
21505;SDS011;10914;48.886;9.394;2022-10-18T11:25:21;21.20;;;19.58;;
21505;SDS011;10914;48.886;9.394;2022-10-18T11:27:51;20.50;;;19.20;;
21505;SDS011;10914;48.886;9.394;2022-10-18T11:32:52;22.10;;;20.60;;
21505;SDS011;10914;48.886;9.394;2022-10-18T11:38:05;22.25;;;20.85;;
21505;SDS011;10914;48.886;9.394;2022-10-18T11:51:22;24.02;;;22.15;;
21505;SDS011;10914;48.886;9.394;2022-10-18T11:58:56;21.75;;;20.55;;
21505;SDS011;10914;48.886;9.394;2022-10-18T12:01:32;23.48;;;21.92;;
21505;SDS011;10914;48.886;9.394;2022-10-18T12:04:42;22.63;;;21.30;;
21505;SDS011;10914;48.886;9.394;2022-10-18T12:06:47;23.38;;;21.58;;
21505;SDS011;10914;48.886;9.394;2022-10-18T12:11:52;23.83;;;22.33;;
21505;SDS011;10914;48.886;9.394;2022-10-18T12:14:29;26.73;;;24.95;;
21505;SDS011;10914;48.886;9.394;2022-10-18T12:16:57;21.60;;;20.30;;
21505;SDS011;10914;48.886;9.394;2022-10-18T12:19:27;21.90;;;20.50;;
21505;SDS011;10914;48.886;9.394;2022-10-18T12:21:57;21.95;;;20.45;;
21505;SDS011;10914;48.886;9.394;2022-10-18T12:24:27;21.08;;;19.55;;
21505;SDS011;10914;48.886;9.394;2022-10-18T12:26:56;20.55;;;19.15;;
21505;SDS011;10914;48.886;9.394;2022-10-18T12:29:24;21.42;;;20.13;;
21505;SDS011;10914;48.886;9.394;2022-10-18T12:31:52;20.67;;;19.58;;
21505;SDS011;10914;48.886;9.394;2022-10-18T12:39:14;22.07;;;20.47;;
21505;SDS011;10914;48.886;9.394;2022-10-18T12:41:41;19.90;;;18.70;;
21505;SDS011;10914;48.886;9.394;2022-10-18T12:44:21;19.65;;;18.48;;
21505;SDS011;10914;48.886;9.394;2022-10-18T12:49:13;20.80;;;19.33;;
21505;SDS011;10914;48.886;9.394;2022-10-18T12:51:54;20.05;;;18.75;;
21505;SDS011;10914;48.886;9.394;2022-10-18T12:54:39;21.40;;;19.98;;
21505;SDS011;10914;48.886;9.394;2022-10-18T12:57:05;20.38;;;19.17;;
21505;SDS011;10914;48.886;9.394;2022-10-18T12:59:41;20.50;;;19.17;;
21505;SDS011;10914;48.886;9.394;2022-10-18T13:02:07;20.60;;;19.27;;
21505;SDS011;10914;48.886;9.394;2022-10-18T13:04:33;20.75;;;19.17;;
21505;SDS011;10914;48.886;9.394;2022-10-18T13:12:00;21.23;;;20.03;;
21505;SDS011;10914;48.886;9.394;2022-10-18T13:17:14;22.98;;;21.63;;
21505;SDS011;10914;48.886;9.394;2022-10-18T13:19:58;21.13;;;19.83;;
21505;SDS011;10914;48.886;9.394;2022-10-18T13:24:57;20.73;;;19.63;;
21505;SDS011;10914;48.886;9.394;2022-10-18T13:32:35;27.93;;;26.27;;
21505;SDS011;10914;48.886;9.394;2022-10-18T13:37:58;29.35;;;27.58;;
21505;SDS011;10914;48.886;9.394;2022-10-18T13:40:24;32.90;;;31.00;;
21505;SDS011;10914;48.886;9.394;2022-10-18T13:42:49;34.70;;;32.75;;
21505;SDS011;10914;48.886;9.394;2022-10-18T13:47:55;36.90;;;34.53;;
21505;SDS011;10914;48.886;9.394;2022-10-18T13:50:26;27.15;;;25.55;;
21505;SDS011;10914;48.886;9.394;2022-10-18T13:53:02;30.48;;;28.85;;
21505;SDS011;10914;48.886;9.394;2022-10-18T13:55:53;27.17;;;25.67;;
21505;SDS011;10914;48.886;9.394;2022-10-18T14:03:37;32.27;;;30.27;;
21505;SDS011;10914;48.886;9.394;2022-10-18T14:10:59;29.15;;;27.55;;
21505;SDS011;10914;48.886;9.394;2022-10-18T14:13:32;42.15;;;39.65;;
21505;SDS011;10914;48.886;9.394;2022-10-18T14:16:00;34.10;;;32.30;;
21505;SDS011;10914;48.886;9.394;2022-10-18T14:18:29;31.02;;;29.48;;
21505;SDS011;10914;48.886;9.394;2022-10-18T14:20:57;25.77;;;24.17;;
21505;SDS011;10914;48.886;9.394;2022-10-18T14:23:31;27.65;;;26.05;;
21505;SDS011;10914;48.886;9.394;2022-10-18T14:26:05;27.73;;;26.30;;
21505;SDS011;10914;48.886;9.394;2022-10-18T14:28:30;27.67;;;25.98;;
21505;SDS011;10914;48.886;9.394;2022-10-18T14:30:56;28.20;;;26.50;;
21505;SDS011;10914;48.886;9.394;2022-10-18T14:33:35;26.13;;;24.73;;
21505;SDS011;10914;48.886;9.394;2022-10-18T14:36:11;25.02;;;23.20;;
21505;SDS011;10914;48.886;9.394;2022-10-18T14:38:43;24.92;;;23.05;;
21505;SDS011;10914;48.886;9.394;2022-10-18T14:41:12;24.38;;;22.63;;
21505;SDS011;10914;48.886;9.394;2022-10-18T14:43:39;23.48;;;22.17;;
21505;SDS011;10914;48.886;9.394;2022-10-18T14:46:08;24.10;;;22.65;;
21505;SDS011;10914;48.886;9.394;2022-10-18T14:48:34;24.50;;;23.20;;
21505;SDS011;10914;48.886;9.394;2022-10-18T14:50:59;25.37;;;23.97;;
21505;SDS011;10914;48.886;9.394;2022-10-18T14:53:26;25.85;;;24.35;;
21505;SDS011;10914;48.886;9.394;2022-10-18T14:55:55;25.73;;;24.05;;
21505;SDS011;10914;48.886;9.394;2022-10-18T14:58:21;27.98;;;26.38;;
21505;SDS011;10914;48.886;9.394;2022-10-18T15:00:47;27.25;;;25.77;;
21505;SDS011;10914;48.886;9.394;2022-10-18T15:03:13;24.38;;;22.98;;
21505;SDS011;10914;48.886;9.394;2022-10-18T15:05:50;23.25;;;21.85;;
21505;SDS011;10914;48.886;9.394;2022-10-18T15:08:15;24.05;;;22.35;;
21505;SDS011;10914;48.886;9.394;2022-10-18T15:10:41;22.55;;;21.35;;
21505;SDS011;10914;48.886;9.394;2022-10-18T15:13:06;22.80;;;21.65;;
21505;SDS011;10914;48.886;9.394;2022-10-18T15:15:31;24.83;;;23.33;;
21505;SDS011;10914;48.886;9.394;2022-10-18T15:17:57;24.30;;;22.88;;
21505;SDS011;10914;48.886;9.394;2022-10-18T15:20:28;24.23;;;22.95;;
21505;SDS011;10914;48.886;9.394;2022-10-18T15:23:17;28.50;;;26.95;;
21505;SDS011;10914;48.886;9.394;2022-10-18T15:25:40;30.83;;;29.20;;
21505;SDS011;10914;48.886;9.394;2022-10-18T15:28:15;25.45;;;24.13;;
21505;SDS011;10914;48.886;9.394;2022-10-18T15:30:43;25.63;;;24.13;;
21505;SDS011;10914;48.886;9.394;2022-10-18T15:33:16;28.87;;;27.27;;
21505;SDS011;10914;48.886;9.394;2022-10-18T15:35:44;30.65;;;28.80;;
21505;SDS011;10914;48.886;9.394;2022-10-18T15:38:13;26.33;;;24.88;;
21505;SDS011;10914;48.886;9.394;2022-10-18T15:40:39;23.50;;;22.08;;
21505;SDS011;10914;48.886;9.394;2022-10-18T15:45:51;25.13;;;23.40;;
21505;SDS011;10914;48.886;9.394;2022-10-18T15:55:45;27.67;;;25.92;;
21505;SDS011;10914;48.886;9.394;2022-10-18T15:58:56;29.73;;;28.13;;
21505;SDS011;10914;48.886;9.394;2022-10-18T16:00:59;31.17;;;29.42;;
21505;SDS011;10914;48.886;9.394;2022-10-18T16:03:25;29.23;;;27.52;;
21505;SDS011;10914;48.886;9.394;2022-10-18T16:05:58;26.52;;;24.85;;
21505;SDS011;10914;48.886;9.394;2022-10-18T16:08:25;25.95;;;24.30;;
21505;SDS011;10914;48.886;9.394;2022-10-18T16:10:52;28.33;;;26.63;;
21505;SDS011;10914;48.886;9.394;2022-10-18T16:13:18;32.92;;;31.13;;
21505;SDS011;10914;48.886;9.394;2022-10-18T16:15:43;33.17;;;31.40;;
21505;SDS011;10914;48.886;9.394;2022-10-18T16:18:15;25.87;;;24.37;;
21505;SDS011;10914;48.886;9.394;2022-10-18T16:20:41;29.17;;;27.38;;
21505;SDS011;10914;48.886;9.394;2022-10-18T16:25:40;31.52;;;29.63;;
21505;SDS011;10914;48.886;9.394;2022-10-18T16:28:08;32.03;;;30.03;;
21505;SDS011;10914;48.886;9.394;2022-10-18T16:30:33;27.65;;;26.10;;
21505;SDS011;10914;48.886;9.394;2022-10-18T16:32:59;37.78;;;35.70;;
21505;SDS011;10914;48.886;9.394;2022-10-18T16:35:24;29.65;;;27.98;;
21505;SDS011;10914;48.886;9.394;2022-10-18T16:37:49;29.25;;;27.63;;
21505;SDS011;10914;48.886;9.394;2022-10-18T16:40:21;41.57;;;39.37;;
21505;SDS011;10914;48.886;9.394;2022-10-18T16:42:47;35.78;;;33.60;;